sensor_id;sensor_type;location;lat;lon;timestamp;P1;durP1;ratioP1;P2;durP2;ratioP2
21339;SDS011;10828;47.064;15.422;2023-04-01T00:00:58;6.00;;;2.50;;
21339;SDS011;10828;47.064;15.422;2023-04-01T00:03:25;7.40;;;2.47;;
21339;SDS011;10828;47.064;15.422;2023-04-01T00:05:55;5.40;;;2.87;;
21339;SDS011;10828;47.064;15.422;2023-04-01T00:08:22;11.33;;;2.60;;
21339;SDS011;10828;47.064;15.422;2023-04-01T00:10:50;5.33;;;2.27;;
21339;SDS011;10828;47.064;15.422;2023-04-01T00:13:16;6.27;;;2.43;;
21339;SDS011;10828;47.064;15.422;2023-04-01T00:15:46;8.20;;;3.17;;
21339;SDS011;10828;47.064;15.422;2023-04-01T00:18:14;7.43;;;2.60;;
21339;SDS011;10828;47.064;15.422;2023-04-01T00:20:45;4.47;;;2.40;;
21339;SDS011;10828;47.064;15.422;2023-04-01T00:23:16;5.73;;;2.80;;
21339;SDS011;10828;47.064;15.422;2023-04-01T00:25:44;4.97;;;2.40;;
21339;SDS011;10828;47.064;15.422;2023-04-01T00:28:13;13.67;;;2.60;;
21339;SDS011;10828;47.064;15.422;2023-04-01T00:30:51;6.10;;;2.20;;
21339;SDS011;10828;47.064;15.422;2023-04-01T00:33:17;5.83;;;2.10;;
21339;SDS011;10828;47.064;15.422;2023-04-01T00:35:45;6.10;;;2.50;;
21339;SDS011;10828;47.064;15.422;2023-04-01T00:38:13;12.57;;;4.83;;
21339;SDS011;10828;47.064;15.422;2023-04-01T00:40:44;7.60;;;2.60;;
21339;SDS011;10828;47.064;15.422;2023-04-01T00:43:15;3.53;;;2.00;;
21339;SDS011;10828;47.064;15.422;2023-04-01T00:45:45;6.37;;;2.20;;
21339;SDS011;10828;47.064;15.422;2023-04-01T00:50:52;2.40;;;1.50;;
21339;SDS011;10828;47.064;15.422;2023-04-01T00:53:23;3.47;;;1.67;;
21339;SDS011;10828;47.064;15.422;2023-04-01T00:55:54;4.03;;;1.70;;
21339;SDS011;10828;47.064;15.422;2023-04-01T00:58:24;4.87;;;1.90;;
21339;SDS011;10828;47.064;15.422;2023-04-01T01:00:55;3.57;;;1.47;;
21339;SDS011;10828;47.064;15.422;2023-04-01T01:03:23;3.47;;;1.27;;
21339;SDS011;10828;47.064;15.422;2023-04-01T01:11:42;2.93;;;1.43;;
21339;SDS011;10828;47.064;15.422;2023-04-01T01:14:19;4.53;;;1.40;;
21339;SDS011;10828;47.064;15.422;2023-04-01T01:17:02;3.67;;;1.50;;
21339;SDS011;10828;47.064;15.422;2023-04-01T01:22:44;3.97;;;1.77;;
21339;SDS011;10828;47.064;15.422;2023-04-01T01:34:33;8.07;;;1.43;;
21339;SDS011;10828;47.064;15.422;2023-04-01T01:37:16;2.33;;;1.00;;
21339;SDS011;10828;47.064;15.422;2023-04-01T01:39:46;7.03;;;1.50;;
21339;SDS011;10828;47.064;15.422;2023-04-01T01:42:24;3.50;;;1.70;;
21339;SDS011;10828;47.064;15.422;2023-04-01T01:45:03;2.93;;;1.63;;
21339;SDS011;10828;47.064;15.422;2023-04-01T01:47:37;4.33;;;1.60;;
21339;SDS011;10828;47.064;15.422;2023-04-01T01:50:05;6.57;;;1.40;;
21339;SDS011;10828;47.064;15.422;2023-04-01T01:52:32;4.23;;;1.60;;
21339;SDS011;10828;47.064;15.422;2023-04-01T01:55:00;3.80;;;1.70;;
21339;SDS011;10828;47.064;15.422;2023-04-01T01:57:31;3.20;;;1.43;;
21339;SDS011;10828;47.064;15.422;2023-04-01T02:00:00;7.17;;;2.50;;
21339;SDS011;10828;47.064;15.422;2023-04-01T02:02:41;7.87;;;2.97;;
21339;SDS011;10828;47.064;15.422;2023-04-01T02:05:10;6.03;;;2.27;;
21339;SDS011;10828;47.064;15.422;2023-04-01T02:07:41;8.83;;;2.83;;
21339;SDS011;10828;47.064;15.422;2023-04-01T02:10:19;6.80;;;2.00;;
21339;SDS011;10828;47.064;15.422;2023-04-01T02:12:49;4.40;;;1.90;;
21339;SDS011;10828;47.064;15.422;2023-04-01T02:15:24;8.70;;;3.00;;
21339;SDS011;10828;47.064;15.422;2023-04-01T02:17:54;8.27;;;3.00;;
21339;SDS011;10828;47.064;15.422;2023-04-01T02:20:22;5.43;;;2.70;;
21339;SDS011;10828;47.064;15.422;2023-04-01T02:22:51;6.43;;;3.43;;
21339;SDS011;10828;47.064;15.422;2023-04-01T02:25:26;7.60;;;3.67;;
21339;SDS011;10828;47.064;15.422;2023-04-01T02:27:55;8.97;;;3.67;;
21339;SDS011;10828;47.064;15.422;2023-04-01T02:30:23;6.03;;;2.77;;
21339;SDS011;10828;47.064;15.422;2023-04-01T02:32:55;7.40;;;2.83;;
21339;SDS011;10828;47.064;15.422;2023-04-01T02:35:25;4.10;;;1.90;;
21339;SDS011;10828;47.064;15.422;2023-04-01T02:37:53;6.87;;;1.83;;
21339;SDS011;10828;47.064;15.422;2023-04-01T02:43:11;4.37;;;2.07;;
21339;SDS011;10828;47.064;15.422;2023-04-01T02:45:38;5.90;;;2.10;;
21339;SDS011;10828;47.064;15.422;2023-04-01T02:48:04;6.53;;;3.33;;
21339;SDS011;10828;47.064;15.422;2023-04-01T02:50:30;11.83;;;3.83;;
21339;SDS011;10828;47.064;15.422;2023-04-01T02:55:28;7.67;;;3.47;;
21339;SDS011;10828;47.064;15.422;2023-04-01T02:57:57;9.70;;;4.00;;
21339;SDS011;10828;47.064;15.422;2023-04-01T03:00:23;7.03;;;3.27;;
21339;SDS011;10828;47.064;15.422;2023-04-01T03:02:51;7.90;;;2.77;;
21339;SDS011;10828;47.064;15.422;2023-04-01T03:05:17;7.00;;;3.43;;
21339;SDS011;10828;47.064;15.422;2023-04-01T03:07:45;11.57;;;3.40;;
21339;SDS011;10828;47.064;15.422;2023-04-01T03:10:12;7.73;;;3.47;;
21339;SDS011;10828;47.064;15.422;2023-04-01T03:12:38;5.43;;;3.00;;
21339;SDS011;10828;47.064;15.422;2023-04-01T03:15:11;7.97;;;2.60;;
21339;SDS011;10828;47.064;15.422;2023-04-01T03:17:57;4.30;;;2.27;;
21339;SDS011;10828;47.064;15.422;2023-04-01T03:20:23;4.80;;;2.07;;
21339;SDS011;10828;47.064;15.422;2023-04-01T03:22:50;6.97;;;1.67;;
21339;SDS011;10828;47.064;15.422;2023-04-01T03:25:17;8.70;;;2.30;;
21339;SDS011;10828;47.064;15.422;2023-04-01T03:27:46;7.37;;;3.30;;
21339;SDS011;10828;47.064;15.422;2023-04-01T03:30:44;8.03;;;3.53;;
21339;SDS011;10828;47.064;15.422;2023-04-01T03:33:11;10.53;;;3.80;;
21339;SDS011;10828;47.064;15.422;2023-04-01T03:35:39;9.17;;;3.83;;
21339;SDS011;10828;47.064;15.422;2023-04-01T03:38:12;10.27;;;4.23;;
21339;SDS011;10828;47.064;15.422;2023-04-01T03:40:38;16.00;;;4.07;;
21339;SDS011;10828;47.064;15.422;2023-04-01T03:43:07;8.77;;;4.07;;
21339;SDS011;10828;47.064;15.422;2023-04-01T03:45:35;10.63;;;4.40;;
21339;SDS011;10828;47.064;15.422;2023-04-01T03:48:09;14.77;;;4.93;;
21339;SDS011;10828;47.064;15.422;2023-04-01T03:50:35;11.37;;;4.93;;
21339;SDS011;10828;47.064;15.422;2023-04-01T03:53:01;12.13;;;4.20;;
21339;SDS011;10828;47.064;15.422;2023-04-01T03:55:28;10.37;;;3.63;;
21339;SDS011;10828;47.064;15.422;2023-04-01T03:57:54;11.20;;;4.10;;
21339;SDS011;10828;47.064;15.422;2023-04-01T04:00:29;14.83;;;4.63;;
21339;SDS011;10828;47.064;15.422;2023-04-01T04:02:57;12.33;;;4.43;;
21339;SDS011;10828;47.064;15.422;2023-04-01T04:05:24;16.33;;;4.83;;
21339;SDS011;10828;47.064;15.422;2023-04-01T04:07:51;8.50;;;4.20;;
21339;SDS011;10828;47.064;15.422;2023-04-01T04:10:19;13.67;;;5.13;;
21339;SDS011;10828;47.064;15.422;2023-04-01T04:12:49;9.03;;;4.27;;
21339;SDS011;10828;47.064;15.422;2023-04-01T04:15:18;8.30;;;4.37;;
21339;SDS011;10828;47.064;15.422;2023-04-01T04:17:44;11.17;;;5.20;;
21339;SDS011;10828;47.064;15.422;2023-04-01T04:20:11;9.17;;;4.77;;
21339;SDS011;10828;47.064;15.422;2023-04-01T04:22:40;11.83;;;5.20;;
21339;SDS011;10828;47.064;15.422;2023-04-01T04:25:06;11.70;;;4.90;;
21339;SDS011;10828;47.064;15.422;2023-04-01T04:27:33;18.03;;;5.97;;
21339;SDS011;10828;47.064;15.422;2023-04-01T04:29:59;8.70;;;4.30;;
21339;SDS011;10828;47.064;15.422;2023-04-01T04:32:25;10.93;;;4.93;;
21339;SDS011;10828;47.064;15.422;2023-04-01T04:34:51;10.73;;;4.97;;
21339;SDS011;10828;47.064;15.422;2023-04-01T04:37:17;8.90;;;4.30;;
21339;SDS011;10828;47.064;15.422;2023-04-01T04:39:50;12.83;;;4.37;;
21339;SDS011;10828;47.064;15.422;2023-04-01T04:42:19;13.17;;;5.23;;
21339;SDS011;10828;47.064;15.422;2023-04-01T04:44:47;11.67;;;5.30;;
21339;SDS011;10828;47.064;15.422;2023-04-01T04:47:14;11.90;;;4.70;;
21339;SDS011;10828;47.064;15.422;2023-04-01T04:49:42;14.43;;;5.53;;
21339;SDS011;10828;47.064;15.422;2023-04-01T04:52:10;11.30;;;6.07;;
21339;SDS011;10828;47.064;15.422;2023-04-01T04:54:36;19.40;;;4.73;;
21339;SDS011;10828;47.064;15.422;2023-04-01T04:57:07;10.83;;;4.50;;
21339;SDS011;10828;47.064;15.422;2023-04-01T04:59:35;10.93;;;5.53;;
21339;SDS011;10828;47.064;15.422;2023-04-01T05:02:23;8.00;;;4.07;;
21339;SDS011;10828;47.064;15.422;2023-04-01T05:04:55;10.03;;;3.20;;
21339;SDS011;10828;47.064;15.422;2023-04-01T05:07:22;7.70;;;3.20;;
21339;SDS011;10828;47.064;15.422;2023-04-01T05:09:49;6.13;;;3.00;;
21339;SDS011;10828;47.064;15.422;2023-04-01T05:12:15;10.53;;;3.10;;
21339;SDS011;10828;47.064;15.422;2023-04-01T05:14:42;6.93;;;3.30;;
21339;SDS011;10828;47.064;15.422;2023-04-01T05:17:10;10.87;;;2.80;;
21339;SDS011;10828;47.064;15.422;2023-04-01T05:19:37;10.57;;;2.70;;
21339;SDS011;10828;47.064;15.422;2023-04-01T05:22:04;8.23;;;2.63;;
21339;SDS011;10828;47.064;15.422;2023-04-01T05:24:33;9.67;;;3.00;;
21339;SDS011;10828;47.064;15.422;2023-04-01T05:27:01;7.73;;;3.07;;
21339;SDS011;10828;47.064;15.422;2023-04-01T05:29:27;5.40;;;2.90;;
21339;SDS011;10828;47.064;15.422;2023-04-01T05:31:52;4.63;;;2.30;;
21339;SDS011;10828;47.064;15.422;2023-04-01T05:34:19;8.07;;;2.70;;
21339;SDS011;10828;47.064;15.422;2023-04-01T05:36:45;6.20;;;2.70;;
21339;SDS011;10828;47.064;15.422;2023-04-01T05:39:13;10.33;;;2.97;;
21339;SDS011;10828;47.064;15.422;2023-04-01T05:41:39;9.10;;;2.73;;
21339;SDS011;10828;47.064;15.422;2023-04-01T05:44:05;5.93;;;2.40;;
21339;SDS011;10828;47.064;15.422;2023-04-01T05:46:31;8.53;;;3.10;;
21339;SDS011;10828;47.064;15.422;2023-04-01T05:48:58;7.63;;;3.07;;
21339;SDS011;10828;47.064;15.422;2023-04-01T05:51:25;8.23;;;3.17;;
21339;SDS011;10828;47.064;15.422;2023-04-01T05:53:53;11.97;;;4.80;;
21339;SDS011;10828;47.064;15.422;2023-04-01T05:56:22;10.90;;;3.03;;
21339;SDS011;10828;47.064;15.422;2023-04-01T05:58:51;7.63;;;3.50;;
21339;SDS011;10828;47.064;15.422;2023-04-01T06:01:23;10.83;;;2.90;;
21339;SDS011;10828;47.064;15.422;2023-04-01T06:03:49;21.17;;;3.60;;
21339;SDS011;10828;47.064;15.422;2023-04-01T06:06:16;24.23;;;3.37;;
21339;SDS011;10828;47.064;15.422;2023-04-01T06:08:51;6.67;;;2.97;;
21339;SDS011;10828;47.064;15.422;2023-04-01T06:13:59;14.17;;;3.20;;
21339;SDS011;10828;47.064;15.422;2023-04-01T06:17:11;8.70;;;3.00;;
21339;SDS011;10828;47.064;15.422;2023-04-01T06:20:05;7.53;;;2.90;;
21339;SDS011;10828;47.064;15.422;2023-04-01T06:23:01;6.90;;;3.10;;
21339;SDS011;10828;47.064;15.422;2023-04-01T06:46:38;11.07;;;2.73;;
21339;SDS011;10828;47.064;15.422;2023-04-01T06:58:11;8.20;;;2.70;;
21339;SDS011;10828;47.064;15.422;2023-04-01T07:00:51;13.67;;;3.13;;
21339;SDS011;10828;47.064;15.422;2023-04-01T07:03:34;8.83;;;3.00;;
21339;SDS011;10828;47.064;15.422;2023-04-01T07:06:35;13.47;;;3.00;;
21339;SDS011;10828;47.064;15.422;2023-04-01T07:09:08;17.27;;;3.40;;
21339;SDS011;10828;47.064;15.422;2023-04-01T07:11:51;11.33;;;3.07;;
21339;SDS011;10828;47.064;15.422;2023-04-01T07:14:29;8.43;;;2.60;;
21339;SDS011;10828;47.064;15.422;2023-04-01T07:22:52;12.60;;;2.30;;
21339;SDS011;10828;47.064;15.422;2023-04-01T12:29:49;4.60;;;1.00;;
21339;SDS011;10828;47.064;15.422;2023-04-01T12:36:13;1.33;;;0.30;;
21339;SDS011;10828;47.064;15.422;2023-04-01T12:51:09;0.20;;;0.20;;
21339;SDS011;10828;47.064;15.422;2023-04-01T12:59:42;0.30;;;0.20;;
21339;SDS011;10828;47.064;15.422;2023-04-01T13:08:33;0.57;;;0.40;;
21339;SDS011;10828;47.064;15.422;2023-04-01T13:19:38;0.40;;;0.27;;
21339;SDS011;10828;47.064;15.422;2023-04-01T13:22:27;1.03;;;0.30;;
21339;SDS011;10828;47.064;15.422;2023-04-01T13:28:47;1.07;;;0.33;;
21339;SDS011;10828;47.064;15.422;2023-04-01T13:34:48;1.03;;;0.30;;
21339;SDS011;10828;47.064;15.422;2023-04-01T13:43:01;0.83;;;0.40;;
21339;SDS011;10828;47.064;15.422;2023-04-01T13:48:39;3.50;;;0.30;;
21339;SDS011;10828;47.064;15.422;2023-04-01T13:54:20;0.67;;;0.20;;
21339;SDS011;10828;47.064;15.422;2023-04-01T14:05:44;0.70;;;0.33;;
21339;SDS011;10828;47.064;15.422;2023-04-01T14:14:21;1.23;;;0.40;;
21339;SDS011;10828;47.064;15.422;2023-04-01T14:17:17;0.90;;;0.30;;
21339;SDS011;10828;47.064;15.422;2023-04-01T14:20:22;0.83;;;0.30;;
21339;SDS011;10828;47.064;15.422;2023-04-01T14:34:25;0.83;;;0.27;;
21339;SDS011;10828;47.064;15.422;2023-04-01T14:49:02;0.30;;;0.17;;
21339;SDS011;10828;47.064;15.422;2023-04-01T14:54:33;0.30;;;0.20;;
21339;SDS011;10828;47.064;15.422;2023-04-01T14:57:09;0.40;;;0.13;;
21339;SDS011;10828;47.064;15.422;2023-04-01T15:02:25;0.50;;;0.20;;
21339;SDS011;10828;47.064;15.422;2023-04-01T15:24:15;6.53;;;2.00;;
21339;SDS011;10828;47.064;15.422;2023-04-01T15:26:50;7.27;;;2.13;;
21339;SDS011;10828;47.064;15.422;2023-04-01T15:34:56;1.03;;;0.40;;
21339;SDS011;10828;47.064;15.422;2023-04-01T15:37:48;6.23;;;0.80;;
21339;SDS011;10828;47.064;15.422;2023-04-01T15:43:54;5.57;;;1.33;;
21339;SDS011;10828;47.064;15.422;2023-04-01T15:59:38;2.20;;;0.90;;
21339;SDS011;10828;47.064;15.422;2023-04-01T16:02:35;2.80;;;0.47;;
21339;SDS011;10828;47.064;15.422;2023-04-01T16:20:45;3.73;;;0.50;;
21339;SDS011;10828;47.064;15.422;2023-04-01T16:23:37;2.13;;;0.80;;
21339;SDS011;10828;47.064;15.422;2023-04-01T16:37:59;12.93;;;1.20;;
21339;SDS011;10828;47.064;15.422;2023-04-01T16:40:37;2.37;;;0.70;;
21339;SDS011;10828;47.064;15.422;2023-04-01T16:48:28;5.07;;;1.10;;
21339;SDS011;10828;47.064;15.422;2023-04-01T16:51:12;5.20;;;1.00;;
21339;SDS011;10828;47.064;15.422;2023-04-01T16:53:43;7.07;;;0.90;;
21339;SDS011;10828;47.064;15.422;2023-04-01T16:56:17;4.03;;;1.00;;
21339;SDS011;10828;47.064;15.422;2023-04-01T16:59:02;6.77;;;1.43;;
21339;SDS011;10828;47.064;15.422;2023-04-01T17:04:33;4.53;;;0.90;;
21339;SDS011;10828;47.064;15.422;2023-04-01T17:15:53;13.87;;;1.53;;
21339;SDS011;10828;47.064;15.422;2023-04-01T17:41:05;15.87;;;5.43;;
21339;SDS011;10828;47.064;15.422;2023-04-01T18:08:58;5.70;;;1.77;;
21339;SDS011;10828;47.064;15.422;2023-04-01T18:19:54;3.77;;;1.00;;
21339;SDS011;10828;47.064;15.422;2023-04-01T18:30:49;0.80;;;0.40;;
21339;SDS011;10828;47.064;15.422;2023-04-01T18:39:18;1.10;;;0.50;;
21339;SDS011;10828;47.064;15.422;2023-04-01T18:56:01;1.93;;;0.30;;
21339;SDS011;10828;47.064;15.422;2023-04-01T19:18:00;4.80;;;0.93;;
21339;SDS011;10828;47.064;15.422;2023-04-01T19:20:41;1.13;;;0.60;;
21339;SDS011;10828;47.064;15.422;2023-04-01T19:26:33;0.90;;;0.40;;
21339;SDS011;10828;47.064;15.422;2023-04-01T19:35:49;1.83;;;0.60;;
21339;SDS011;10828;47.064;15.422;2023-04-01T19:41:24;1.10;;;0.50;;
21339;SDS011;10828;47.064;15.422;2023-04-01T19:50:23;2.77;;;0.70;;
21339;SDS011;10828;47.064;15.422;2023-04-01T19:53:14;0.63;;;0.40;;
21339;SDS011;10828;47.064;15.422;2023-04-01T19:55:47;1.20;;;0.50;;
21339;SDS011;10828;47.064;15.422;2023-04-01T20:01:09;2.97;;;1.03;;
21339;SDS011;10828;47.064;15.422;2023-04-01T20:03:58;9.77;;;1.23;;
21339;SDS011;10828;47.064;15.422;2023-04-01T20:06:49;5.50;;;2.17;;
21339;SDS011;10828;47.064;15.422;2023-04-01T20:12:01;3.63;;;1.00;;
21339;SDS011;10828;47.064;15.422;2023-04-01T20:14:51;5.40;;;1.43;;
21339;SDS011;10828;47.064;15.422;2023-04-01T20:20:17;14.37;;;1.80;;
21339;SDS011;10828;47.064;15.422;2023-04-01T20:25:52;6.17;;;1.70;;
21339;SDS011;10828;47.064;15.422;2023-04-01T20:28:28;9.00;;;1.50;;
21339;SDS011;10828;47.064;15.422;2023-04-01T20:39:40;10.13;;;1.90;;
21339;SDS011;10828;47.064;15.422;2023-04-01T20:53:35;5.00;;;1.60;;
21339;SDS011;10828;47.064;15.422;2023-04-01T20:59:03;4.73;;;1.30;;
21339;SDS011;10828;47.064;15.422;2023-04-01T21:06:46;4.33;;;1.20;;
21339;SDS011;10828;47.064;15.422;2023-04-01T21:09:24;2.03;;;0.80;;
21339;SDS011;10828;47.064;15.422;2023-04-01T21:12:09;1.47;;;0.70;;
21339;SDS011;10828;47.064;15.422;2023-04-01T21:23:38;1.43;;;0.70;;
21339;SDS011;10828;47.064;15.422;2023-04-01T21:31:48;2.63;;;0.90;;
21339;SDS011;10828;47.064;15.422;2023-04-01T21:37:18;1.80;;;0.83;;
21339;SDS011;10828;47.064;15.422;2023-04-01T21:51:06;1.43;;;0.53;;
21339;SDS011;10828;47.064;15.422;2023-04-01T21:59:52;2.40;;;0.77;;
21339;SDS011;10828;47.064;15.422;2023-04-01T22:11:08;5.17;;;1.00;;
21339;SDS011;10828;47.064;15.422;2023-04-01T22:16:41;1.63;;;0.73;;
21339;SDS011;10828;47.064;15.422;2023-04-01T22:19:20;6.53;;;0.70;;
21339;SDS011;10828;47.064;15.422;2023-04-01T22:30:20;1.77;;;0.80;;
21339;SDS011;10828;47.064;15.422;2023-04-01T22:32:57;18.03;;;1.50;;
21339;SDS011;10828;47.064;15.422;2023-04-01T22:44:37;2.93;;;0.90;;
21339;SDS011;10828;47.064;15.422;2023-04-01T22:53:22;5.73;;;1.10;;
21339;SDS011;10828;47.064;15.422;2023-04-01T22:56:19;3.17;;;1.07;;
21339;SDS011;10828;47.064;15.422;2023-04-01T22:59:04;2.17;;;1.20;;
21339;SDS011;10828;47.064;15.422;2023-04-01T23:01:43;5.17;;;1.20;;
21339;SDS011;10828;47.064;15.422;2023-04-01T23:04:23;5.27;;;1.07;;
21339;SDS011;10828;47.064;15.422;2023-04-01T23:06:57;4.53;;;1.23;;
21339;SDS011;10828;47.064;15.422;2023-04-01T23:09:31;4.77;;;1.10;;
21339;SDS011;10828;47.064;15.422;2023-04-01T23:12:05;5.97;;;1.50;;
21339;SDS011;10828;47.064;15.422;2023-04-01T23:14:39;4.83;;;1.33;;
21339;SDS011;10828;47.064;15.422;2023-04-01T23:17:19;3.20;;;1.10;;
21339;SDS011;10828;47.064;15.422;2023-04-01T23:22:55;6.63;;;1.20;;
21339;SDS011;10828;47.064;15.422;2023-04-01T23:25:51;8.37;;;2.70;;
21339;SDS011;10828;47.064;15.422;2023-04-01T23:31:06;3.23;;;0.90;;
21339;SDS011;10828;47.064;15.422;2023-04-01T23:36:46;2.53;;;1.17;;
21339;SDS011;10828;47.064;15.422;2023-04-01T23:42:19;2.30;;;1.00;;
21339;SDS011;10828;47.064;15.422;2023-04-01T23:45:04;5.23;;;1.57;;
21339;SDS011;10828;47.064;15.422;2023-04-01T23:47:38;6.30;;;1.40;;
21339;SDS011;10828;47.064;15.422;2023-04-01T23:50:09;5.37;;;1.40;;
21339;SDS011;10828;47.064;15.422;2023-04-01T23:55:29;1.70;;;0.80;;
21339;SDS011;10828;47.064;15.422;2023-04-01T23:58:08;2.83;;;1.10;;
